Time;durP1;ratioP1;P1;durP2;ratioP2;P2;SDS_P1;SDS_P2;PMS_P1;PMS_P2;Temp;Humidity;BMP_temperature;BMP_pressure;BME280_temperature;BME280_humidity;BME280_pressure;Samples;Min_cycle;Max_cycle;Signal;HPM_P1;HPM_P2
2022/04/24 00:00:59;;;;;;;23.00;8.07;;;;;;;18.18;41.93;94632.53;5030837;28;20476;-59
2022/04/24 00:03:26;;;;;;;15.00;8.30;;;;;;;18.21;42.37;94627.38;5030788;28;20436;-54
2022/04/24 00:05:53;;;;;;;16.47;7.80;;;;;;;18.33;41.53;94626.00;5028867;28;20557;-60
2022/04/24 00:08:20;;;;;;;16.00;7.70;;;;;;;18.44;41.49;94628.09;5030939;28;20432;-60
2022/04/24 00:10:47;;;;;;;16.37;7.67;;;;;;;18.38;41.12;94626.63;5030618;28;20527;-64
2022/04/24 00:13:14;;;;;;;12.50;5.67;;;;;;;18.08;41.41;94632.81;5030815;28;20444;-60
2022/04/24 00:15:41;;;;;;;13.67;6.77;;;;;;;17.90;42.24;94633.88;5029783;28;20447;-59
2022/04/24 00:18:08;;;;;;;13.70;7.27;;;;;;;18.07;41.77;94633.91;5030484;28;20472;-58
2022/04/24 00:20:35;;;;;;;17.93;9.57;;;;;;;18.01;41.88;94633.25;5030005;28;20544;-56
2022/04/24 00:23:03;;;;;;;14.50;7.63;;;;;;;17.93;42.28;94641.19;5031084;28;20467;-63
2022/04/24 00:25:30;;;;;;;14.13;7.57;;;;;;;17.74;42.24;94638.00;5030072;28;20510;-54
2022/04/24 00:28:00;;;;;;;17.40;9.80;;;;;;;17.77;42.54;94637.41;5030456;28;20487;-54
2022/04/24 00:30:28;;;;;;;18.57;11.90;;;;;;;17.93;42.12;94635.91;5030111;28;20444;-54
2022/04/24 00:32:55;;;;;;;21.67;11.10;;;;;;;17.83;42.04;94639.59;5030429;28;20469;-59
2022/04/24 00:35:22;;;;;;;23.50;11.40;;;;;;;17.73;42.32;94642.53;5029780;28;21000;-56
2022/04/24 00:37:49;;;;;;;19.77;10.50;;;;;;;17.61;42.90;94644.19;5029839;28;20962;-61
2022/04/24 00:40:16;;;;;;;22.60;13.40;;;;;;;17.66;42.96;94646.69;5029965;28;20525;-52
2022/04/24 00:42:42;;;;;;;37.00;22.23;;;;;;;17.54;43.18;94644.59;5030149;28;20447;-57
2022/04/24 00:45:09;;;;;;;32.47;19.70;;;;;;;17.67;42.79;94632.34;5029488;28;20447;-57
2022/04/24 00:47:43;;;;;;;37.67;19.77;;;;;;;17.68;42.80;94639.22;5028705;28;20494;-59
2022/04/24 00:50:11;;;;;;;28.87;14.93;;;;;;;17.58;42.64;94634.19;5029639;28;20436;-57
2022/04/24 00:52:38;;;;;;;25.57;13.03;;;;;;;17.41;42.86;94631.44;5030142;28;20439;-61
2022/04/24 00:55:06;;;;;;;23.13;13.73;;;;;;;17.12;43.55;94635.31;5029390;28;20448;-56
2022/04/24 00:57:33;;;;;;;24.90;14.67;;;;;;;17.08;43.70;94636.97;5029891;28;20435;-58
2022/04/24 01:00:01;;;;;;;30.50;14.87;;;;;;;17.30;43.59;94638.81;5029938;28;20475;-60
2022/04/24 01:02:28;;;;;;;27.43;13.57;;;;;;;17.29;43.45;94647.09;5030418;28;20510;-54
2022/04/24 01:04:57;;;;;;;18.13;10.70;;;;;;;16.82;43.88;94643.19;5029130;28;20452;-55
2022/04/24 01:07:24;;;;;;;19.07;9.83;;;;;;;16.29;45.63;94655.44;5029704;28;20479;-52
2022/04/24 01:09:51;;;;;;;15.40;8.90;;;;;;;16.67;44.44;94651.47;5029609;28;20569;-56
2022/04/24 01:12:18;;;;;;;13.60;8.53;;;;;;;16.68;44.09;94650.38;5029858;28;20439;-59
2022/04/24 01:14:45;;;;;;;16.57;8.70;;;;;;;16.82;44.59;94657.19;5029225;28;20464;-51
2022/04/24 01:17:12;;;;;;;15.03;8.97;;;;;;;17.04;43.48;94662.50;5029476;28;21075;-59
2022/04/24 01:19:39;;;;;;;14.23;8.97;;;;;;;17.07;43.57;94661.13;5029407;28;20849;-58
2022/04/24 01:22:07;;;;;;;15.57;9.57;;;;;;;17.22;43.17;94653.56;5029989;28;20560;-53
2022/04/24 01:24:34;;;;;;;16.73;8.97;;;;;;;17.16;43.00;94668.03;5029294;28;20452;-60
2022/04/24 01:27:01;;;;;;;19.80;9.10;;;;;;;17.12;42.83;94669.72;5029874;28;20475;-52
2022/04/24 01:29:28;;;;;;;11.70;7.00;;;;;;;16.92;43.67;94674.69;5029466;28;20432;-59
2022/04/24 01:31:55;;;;;;;11.63;7.83;;;;;;;16.94;43.63;94675.19;5029156;28;20443;-58
2022/04/24 01:34:22;;;;;;;14.90;7.80;;;;;;;16.82;43.57;94681.00;5029288;28;20448;-58
2022/04/24 01:36:49;;;;;;;15.03;8.77;;;;;;;16.75;43.74;94675.34;5028406;28;20497;-57
2022/04/24 01:39:16;;;;;;;15.83;7.60;;;;;;;16.68;43.40;94674.97;5029606;28;20511;-59
2022/04/24 01:41:44;;;;;;;15.87;8.30;;;;;;;16.71;43.75;94666.47;5028978;28;21005;-58
2022/04/24 01:44:11;;;;;;;14.67;5.90;;;;;;;16.82;43.20;94681.00;5029147;28;20432;-55
2022/04/24 01:46:38;;;;;;;14.57;5.63;;;;;;;16.76;43.19;94682.22;5028924;28;21081;-58
2022/04/24 01:49:05;;;;;;;12.57;6.47;;;;;;;16.87;43.66;94686.19;5029447;28;20779;-59
2022/04/24 01:51:32;;;;;;;15.53;6.87;;;;;;;16.63;44.21;94683.03;5029307;28;20526;-57
2022/04/24 01:53:59;;;;;;;15.03;5.60;;;;;;;16.53;44.31;94693.03;5029893;28;20436;-59
2022/04/24 01:56:26;;;;;;;9.00;5.40;;;;;;;16.57;43.96;94689.50;5030387;28;20440;-55
2022/04/24 01:58:53;;;;;;;10.97;6.00;;;;;;;16.53;44.44;94691.16;5033565;28;20455;-50
2022/04/24 02:01:20;;;;;;;14.80;6.53;;;;;;;16.49;44.90;94692.84;5032650;28;20821;-60
2022/04/24 02:03:47;;;;;;;14.33;5.97;;;;;;;15.73;46.42;94684.81;5033374;28;20432;-56
2022/04/24 02:06:14;;;;;;;10.67;5.73;;;;;;;16.07;45.73;94682.56;5032463;28;20428;-56
2022/04/24 02:08:41;;;;;;;12.60;5.27;;;;;;;15.97;45.49;94688.84;5031994;28;21010;-60
2022/04/24 02:11:08;;;;;;;12.37;5.87;;;;;;;15.97;45.72;94688.03;5032589;28;20446;-58
2022/04/24 02:13:35;;;;;;;12.77;6.30;;;;;;;15.74;46.08;94691.66;5032950;28;21012;-55
2022/04/24 02:16:03;;;;;;;10.40;5.50;;;;;;;16.08;45.28;94686.78;5032708;28;20466;-60
2022/04/24 02:18:30;;;;;;;12.63;5.73;;;;;;;16.08;45.38;94686.78;5032478;28;21021;-58
2022/04/24 02:20:57;;;;;;;10.20;5.93;;;;;;;16.12;45.33;94693.03;5032195;28;20923;-55
2022/04/24 02:23:24;;;;;;;11.83;6.13;;;;;;;16.24;44.89;94686.19;5033028;28;20532;-58
2022/04/24 02:25:51;;;;;;;10.67;5.50;;;;;;;16.50;44.77;94689.13;5032085;28;20447;-57
2022/04/24 02:28:18;;;;;;;11.33;5.70;;;;;;;16.43;44.66;94693.22;5032733;28;20483;-55
2022/04/24 02:30:45;;;;;;;11.30;5.43;;;;;;;16.37;45.03;94684.59;5031833;28;20556;-57
2022/04/24 02:33:12;;;;;;;8.13;4.57;;;;;;;16.52;44.08;94689.59;5032762;28;20825;-53
2022/04/24 02:35:39;;;;;;;10.03;5.00;;;;;;;16.65;43.79;94688.81;5032127;28;20513;-61
2022/04/24 02:38:06;;;;;;;12.97;5.53;;;;;;;16.51;44.34;94685.41;5032681;28;20452;-62
2022/04/24 02:40:34;;;;;;;9.00;5.40;;;;;;;16.50;44.26;94689.13;5032579;28;20448;-59
2022/04/24 02:43:02;;;;;;;15.43;6.03;;;;;;;16.33;44.37;94694.19;5032462;28;20874;-53
2022/04/24 02:45:29;;;;;;;9.97;4.57;;;;;;;16.55;44.24;94691.66;5031823;28;20446;-60
2022/04/24 02:47:56;;;;;;;8.63;4.03;;;;;;;16.45;44.52;94691.06;5032114;28;20487;-61
2022/04/24 02:50:23;;;;;;;7.67;3.97;;;;;;;16.59;43.66;94684.69;5031966;28;20460;-55
2022/04/24 02:52:52;;;;;;;10.07;4.63;;;;;;;16.63;43.52;94688.31;5032573;28;20535;-53
2022/04/24 02:55:21;;;;;;;7.30;4.50;;;;;;;16.35;44.47;94686.75;5031532;28;20446;-53
2022/04/24 02:57:48;;;;;;;11.07;5.20;;;;;;;16.32;44.45;94691.84;5032507;28;20448;-54
2022/04/24 03:00:22;;;;;;;10.57;5.20;;;;;;;16.15;44.22;94693.25;5032149;28;20447;-57
2022/04/24 03:02:51;;;;;;;14.53;5.83;;;;;;;16.08;44.95;94710.56;5032517;28;20543;-58
2022/04/24 03:05:20;;;;;;;18.07;6.90;;;;;;;15.99;44.98;94704.38;5031703;28;20447;-57
2022/04/24 03:07:47;;;;;;;19.33;8.60;;;;;;;16.13;44.58;94710.47;5032273;28;20574;-60
2022/04/24 03:10:16;;;;;;;17.87;9.33;;;;;;;16.01;45.31;94708.31;5031621;28;20446;-56
2022/04/24 03:12:44;;;;;;;23.63;12.30;;;;;;;16.01;45.84;94707.53;5032234;28;20847;-57
2022/04/24 03:15:12;;;;;;;18.03;11.30;;;;;;;16.22;44.54;94719.28;5031313;28;20444;-54
2022/04/24 03:17:39;;;;;;;23.40;12.80;;;;;;;16.05;44.91;94717.22;5031583;28;20577;-56
2022/04/24 03:20:08;;;;;;;20.00;12.10;;;;;;;15.94;45.38;94717.72;5031421;28;20443;-59
2022/04/24 03:22:35;;;;;;;28.27;12.87;;;;;;;15.83;45.79;94726.88;5031702;28;20443;-55
2022/04/24 03:25:05;;;;;;;23.07;11.43;;;;;;;15.66;46.12;94727.44;5030793;28;20460;-63
2022/04/24 03:27:32;;;;;;;20.57;10.30;;;;;;;15.84;45.25;94728.44;5031657;28;20545;-58
2022/04/24 03:29:59;;;;;;;21.17;10.37;;;;;;;15.79;45.54;94728.53;5031248;28;20455;-54
2022/04/24 03:32:31;;;;;;;17.33;10.17;;;;;;;15.82;45.71;94736.66;5031785;28;20973;-53
2022/04/24 03:34:58;;;;;;;24.00;11.07;;;;;;;15.99;44.42;94726.31;5031044;28;20464;-55
2022/04/24 03:37:26;;;;;;;23.50;14.77;;;;;;;15.64;45.75;94731.44;5031366;28;20456;-56
2022/04/24 03:39:53;;;;;;;19.83;11.20;;;;;;;15.36;46.92;94729.78;5031169;28;21139;-50
2022/04/24 03:42:20;;;;;;;20.10;10.73;;;;;;;14.77;47.72;94746.22;5031567;28;20462;-56
2022/04/24 03:44:47;;;;;;;20.13;9.50;;;;;;;15.25;46.75;94742.38;5031206;28;20432;-56
2022/04/24 03:47:14;;;;;;;19.73;9.87;;;;;;;15.52;45.62;94747.75;5031203;28;20900;-58
2022/04/24 03:49:41;;;;;;;19.13;9.67;;;;;;;15.58;45.92;94745.81;5030594;28;20912;-55
2022/04/24 03:52:08;;;;;;;17.47;9.73;;;;;;;15.52;45.84;94739.84;5031183;28;20966;-59
2022/04/24 03:54:35;;;;;;;16.97;9.47;;;;;;;15.79;45.71;94736.47;5030466;28;20502;-52
2022/04/24 03:57:03;;;;;;;13.00;7.43;;;;;;;15.44;46.30;94734.44;5029665;28;20459;-61
2022/04/24 03:59:30;;;;;;;12.60;5.87;;;;;;;15.59;46.10;94736.81;5030478;28;20451;-56
2022/04/24 04:01:57;;;;;;;14.10;5.90;;;;;;;15.78;44.88;94740.19;5030788;28;20447;-53
2022/04/24 04:04:25;;;;;;;10.40;5.87;;;;;;;15.69;45.24;94741.94;5031337;28;20610;-55
2022/04/24 04:06:52;;;;;;;14.03;7.10;;;;;;;15.61;45.44;94738.09;5030369;28;20539;-62
2022/04/24 04:09:19;;;;;;;12.80;7.53;;;;;;;15.73;45.26;94738.41;5030674;28;20524;-56
2022/04/24 04:11:46;;;;;;;16.03;9.67;;;;;;;15.44;46.57;94745.78;5030585;28;20447;-58
2022/04/24 04:14:13;;;;;;;16.37;10.23;;;;;;;16.00;45.12;94742.97;5030584;28;20534;-57
2022/04/24 04:16:40;;;;;;;21.87;10.57;;;;;;;15.97;45.72;94739.03;5029864;28;20451;-56
2022/04/24 04:19:07;;;;;;;21.97;10.97;;;;;;;16.10;45.65;94737.47;5030232;28;20491;-58
2022/04/24 04:21:35;;;;;;;13.67;9.00;;;;;;;16.36;44.62;94737.78;5030086;28;20447;-54
2022/04/24 04:24:01;;;;;;;15.80;7.83;;;;;;;16.63;43.84;94741.22;5030864;28;20444;-57
2022/04/24 04:26:28;;;;;;;10.27;6.37;;;;;;;16.57;43.52;94742.41;5029858;28;20951;-57
2022/04/24 04:28:56;;;;;;;13.93;7.40;;;;;;;16.27;44.68;94737.69;5030109;28;20482;-54
2022/04/24 04:31:23;;;;;;;11.30;6.83;;;;;;;16.46;43.75;94745.53;5029868;28;21038;-52
2022/04/24 04:33:50;;;;;;;15.57;7.70;;;;;;;16.93;44.05;94751.16;5030786;28;21012;-53
2022/04/24 04:36:17;;;;;;;8.87;5.60;;;;;;;17.03;43.42;94750.94;5029668;28;20444;-53
2022/04/24 04:38:44;;;;;;;13.43;5.57;;;;;;;16.97;43.50;94752.13;5030536;28;20451;-54
2022/04/24 04:41:10;;;;;;;14.67;7.60;;;;;;;16.90;43.97;94751.75;5029877;28;20451;-59
2022/04/24 04:43:38;;;;;;;12.17;7.80;;;;;;;16.90;44.47;94750.97;5030573;28;20868;-61
2022/04/24 04:46:05;;;;;;;17.13;9.87;;;;;;;17.00;43.71;94758.69;5030073;28;20524;-62
2022/04/24 04:48:32;;;;;;;21.63;12.07;;;;;;;17.00;44.69;94759.50;5030456;28;20864;-60
2022/04/24 04:50:58;;;;;;;27.13;17.90;;;;;;;16.94;44.41;94768.59;5029756;28;20501;-57
2022/04/24 04:53:26;;;;;;;28.97;18.27;;;;;;;17.15;44.39;94756.47;5029974;28;20444;-56
2022/04/24 04:55:52;;;;;;;25.07;16.47;;;;;;;17.16;43.73;94770.50;5029447;28;20442;-56
2022/04/24 04:58:19;;;;;;;25.70;14.60;;;;;;;17.34;43.13;94761.63;5029956;28;20440;-56
2022/04/24 05:00:46;;;;;;;22.73;13.30;;;;;;;17.20;43.55;94772.28;5029441;28;20432;-61
2022/04/24 05:03:13;;;;;;;18.93;12.73;;;;;;;17.34;43.95;94766.91;5030138;28;20443;-61
2022/04/24 05:05:41;;;;;;;16.73;11.63;;;;;;;17.37;43.93;94770.84;5029236;28;20519;-55
2022/04/24 05:08:08;;;;;;;22.57;11.33;;;;;;;17.49;43.71;94773.75;5029645;28;20494;-53
2022/04/24 05:10:35;;;;;;;17.60;11.30;;;;;;;17.31;43.68;94782.63;5029066;28;20873;-60
2022/04/24 05:13:02;;;;;;;17.50;11.33;;;;;;;17.54;43.91;94781.59;5029895;28;20498;-57
2022/04/24 05:15:29;;;;;;;25.23;12.43;;;;;;;17.68;43.13;94777.03;5029155;28;20443;-52
2022/04/24 05:17:56;;;;;;;18.20;11.93;;;;;;;17.78;43.36;94779.41;5029463;28;20479;-53
2022/04/24 05:20:23;;;;;;;19.17;13.90;;;;;;;17.84;42.75;94780.84;5028908;28;21032;-58
2022/04/24 05:22:50;;;;;;;19.73;14.50;;;;;;;17.76;42.82;94773.63;5029780;28;20448;-56
2022/04/24 05:25:17;;;;;;;21.50;15.30;;;;;;;17.79;42.81;94767.75;5029250;28;20436;-53
2022/04/24 05:27:44;;;;;;;20.03;14.27;;;;;;;17.86;43.23;94784.00;5029282;28;20467;-63
2022/04/24 05:30:11;;;;;;;22.10;12.30;;;;;;;18.03;42.72;94778.78;5028301;28;21016;-60
2022/04/24 05:32:46;;;;;;;16.87;12.70;;;;;;;18.21;42.61;94775.91;5028841;28;20436;-52
2022/04/24 05:35:14;;;;;;;17.47;10.83;;;;;;;18.13;44.07;94781.19;5029053;28;20442;-58
2022/04/24 05:37:41;;;;;;;16.53;11.43;;;;;;;18.23;43.21;94757.03;5029195;28;20505;-56
2022/04/24 05:40:09;;;;;;;16.37;10.97;;;;;;;18.16;43.42;94767.28;5029203;28;20520;-57
2022/04/24 05:42:49;;;;;;;20.10;11.20;;;;;;;17.62;44.33;94772.91;5029385;28;20439;-54
2022/04/24 05:45:18;;;;;;;18.00;11.27;;;;;;;18.21;43.62;94767.16;5028698;28;20835;-59
2022/04/24 05:47:46;;;;;;;14.97;9.63;;;;;;;18.25;43.82;94764.69;5028728;28;20586;-56
2022/04/24 05:50:13;;;;;;;14.23;9.20;;;;;;;18.55;42.81;94758.59;5028580;28;20566;-59
2022/04/24 05:52:41;;;;;;;12.63;8.67;;;;;;;18.78;42.17;94771.44;5029299;28;20539;-52
2022/04/24 05:55:09;;;;;;;11.27;9.00;;;;;;;18.74;42.26;94767.84;5029030;28;20457;-55
2022/04/24 05:57:36;;;;;;;13.87;9.17;;;;;;;18.94;42.23;94772.56;5029210;28;20443;-58
2022/04/24 06:00:12;;;;;;;14.17;8.83;;;;;;;19.12;42.62;94757.44;5029133;28;20464;-57
2022/04/24 06:02:40;;;;;;;14.00;9.87;;;;;;;18.93;41.89;94755.09;5029475;28;20450;-56
2022/04/24 06:05:08;;;;;;;15.33;10.33;;;;;;;19.04;41.83;94758.22;5028600;28;20849;-52
2022/04/24 06:07:35;;;;;;;13.20;9.93;;;;;;;19.13;41.62;94737.75;5029027;28;20559;-52
2022/04/24 06:10:02;;;;;;;13.23;10.20;;;;;;;19.06;41.50;94745.41;5028403;28;20891;-59
2022/04/24 06:12:30;;;;;;;16.30;10.20;;;;;;;19.03;41.56;94754.78;5029413;28;20451;-57
2022/04/24 06:15:03;;;;;;;11.37;8.43;;;;;;;19.20;41.63;94754.78;5028940;28;20827;-61
2022/04/24 06:17:30;;;;;;;15.90;8.90;;;;;;;19.33;41.42;94741.69;5028877;28;20566;-60
2022/04/24 06:19:57;;;;;;;11.47;7.73;;;;;;;19.40;40.74;94747.31;5028736;28;20428;-58
2022/04/24 06:22:24;;;;;;;9.40;6.67;;;;;;;19.43;40.84;94749.34;5029215;28;20451;-54
2022/04/24 06:24:51;;;;;;;10.47;6.90;;;;;;;19.61;41.01;94748.25;5028321;28;20474;-59
2022/04/24 06:27:18;;;;;;;10.13;6.20;;;;;;;19.66;40.40;94742.75;5028965;28;20805;-59
2022/04/24 06:29:45;;;;;;;8.33;6.37;;;;;;;19.54;40.20;94737.31;5028612;28;20436;-60
2022/04/24 06:32:12;;;;;;;9.00;5.93;;;;;;;19.82;40.04;94739.28;5029456;28;20458;-59
2022/04/24 06:34:39;;;;;;;10.13;5.70;;;;;;;20.08;39.74;94737.34;5028698;28;20444;-63
2022/04/24 06:37:06;;;;;;;8.87;4.93;;;;;;;20.11;39.68;94741.22;5028592;28;20859;-51
2022/04/24 06:39:34;;;;;;;12.97;5.07;;;;;;;19.91;39.59;94736.59;5028005;28;20562;-58
2022/04/24 06:42:00;;;;;;;10.13;5.87;;;;;;;19.97;39.37;94743.31;5029777;28;20439;-55
2022/04/24 06:44:27;;;;;;;10.50;5.30;;;;;;;19.86;39.50;94745.53;5032511;28;20428;-63
2022/04/24 06:46:54;;;;;;;7.33;4.60;;;;;;;20.22;38.95;94737.16;5031835;28;20463;-60
2022/04/24 06:49:21;;;;;;;10.70;5.30;;;;;;;20.25;40.15;94741.06;5032332;28;20479;-59
2022/04/24 06:51:48;;;;;;;12.60;4.60;;;;;;;20.69;39.45;94735.97;5031518;28;20440;-60
2022/04/24 06:54:16;;;;;;;18.50;5.13;;;;;;;20.74;39.66;94735.03;5032816;28;20444;-59
2022/04/24 06:56:43;;;;;;;8.80;4.47;;;;;;;20.80;38.56;94731.84;5031656;28;20454;-58
2022/04/24 06:59:10;;;;;;;8.63;4.33;;;;;;;20.90;38.26;94731.50;5031774;28;20533;-53
2022/04/24 07:01:37;;;;;;;12.90;5.00;;;;;;;20.86;38.78;94727.91;5031415;28;20955;-59
2022/04/24 07:04:04;;;;;;;6.77;3.90;;;;;;;21.05;38.04;94722.97;5031870;28;20974;-59
2022/04/24 07:06:31;;;;;;;8.50;4.30;;;;;;;20.94;37.39;94726.28;5031627;28;20460;-53
2022/04/24 07:08:58;;;;;;;8.87;4.23;;;;;;;21.01;37.94;94711.38;5032023;28;20571;-60
2022/04/24 07:11:25;;;;;;;11.70;4.97;;;;;;;21.07;38.73;94710.09;5031512;28;20879;-59
2022/04/24 07:13:52;;;;;;;11.67;4.97;;;;;;;21.35;38.42;94706.88;5032016;28;20462;-51
2022/04/24 07:16:19;;;;;;;12.20;5.10;;;;;;;21.66;38.31;94712.56;5031797;28;20450;-56
2022/04/24 07:18:46;;;;;;;11.17;4.93;;;;;;;21.68;37.97;94707.66;5031756;28;20499;-54
2022/04/24 07:21:13;;;;;;;10.60;5.30;;;;;;;21.85;38.13;94700.31;5031026;28;20436;-60
2022/04/24 07:23:40;;;;;;;9.63;4.13;;;;;;;22.02;37.03;94700.09;5032375;28;20942;-59
2022/04/24 07:26:07;;;;;;;7.10;3.70;;;;;;;21.99;36.25;94691.97;5031167;28;20890;-55
2022/04/24 07:28:33;;;;;;;8.33;4.30;;;;;;;21.99;36.92;94703.44;5031982;28;20475;-59
2022/04/24 07:31:00;;;;;;;6.77;3.73;;;;;;;22.11;37.71;94684.78;5031596;28;20505;-56
2022/04/24 07:33:28;;;;;;;7.70;3.33;;;;;;;21.96;36.10;94689.97;5030209;28;20495;-60
2022/04/24 07:35:54;;;;;;;7.67;4.10;;;;;;;21.72;35.71;94692.56;5030684;28;20985;-55
2022/04/24 07:38:21;;;;;;;10.00;5.27;;;;;;;22.32;35.14;94690.00;5031557;28;20924;-57
2022/04/24 07:40:48;;;;;;;11.07;4.93;;;;;;;22.13;37.54;94684.44;5030546;28;20447;-55
2022/04/24 07:43:15;;;;;;;10.90;6.63;;;;;;;22.50;37.66;94687.91;5031662;28;20440;-60
2022/04/24 07:45:49;;;;;;;16.87;9.50;;;;;;;22.58;37.38;94693.16;5030886;28;20990;-50
2022/04/24 07:48:17;;;;;;;15.30;9.43;;;;;;;22.96;37.01;94682.06;5030990;28;21055;-54
2022/04/24 07:50:49;;;;;;;13.07;8.67;;;;;;;22.73;36.92;94679.13;5030381;28;20982;-59
2022/04/24 07:53:18;;;;;;;13.90;8.27;;;;;;;22.56;37.56;94684.69;5030540;28;20534;-53
2022/04/24 07:55:47;;;;;;;14.37;8.27;;;;;;;23.06;37.36;94677.03;5030242;28;20966;-53
2022/04/24 07:58:14;;;;;;;10.07;6.70;;;;;;;22.76;36.25;94678.44;5030838;28;20438;-57
2022/04/24 08:00:42;;;;;;;16.37;7.70;;;;;;;23.16;36.07;94669.69;5030487;28;20428;-54
2022/04/24 08:03:11;;;;;;;11.13;7.00;;;;;;;23.13;35.62;94671.91;5030709;28;20432;-56
2022/04/24 08:05:43;;;;;;;13.43;6.00;;;;;;;23.23;35.30;94659.19;5030653;28;20459;-58
2022/04/24 08:08:19;;;;;;;12.27;6.07;;;;;;;22.88;35.07;94669.63;5030881;28;20467;-55
2022/04/24 08:10:49;;;;;;;11.27;5.97;;;;;;;23.17;35.51;94656.72;5030572;28;20530;-50
2022/04/24 08:13:17;;;;;;;8.93;5.37;;;;;;;23.12;35.21;94650.84;5030530;28;20884;-59
2022/04/24 08:15:45;;;;;;;9.13;4.57;;;;;;;23.25;35.19;94646.25;5030520;28;20522;-60
2022/04/24 08:18:12;;;;;;;9.53;4.40;;;;;;;23.51;34.27;94649.25;5030359;28;20464;-57
2022/04/24 08:20:40;;;;;;;8.43;4.70;;;;;;;23.71;34.36;94638.34;5030150;28;20842;-61
2022/04/24 08:23:09;;;;;;;9.27;4.10;;;;;;;23.40;34.60;94643.63;5030701;28;20514;-53
2022/04/24 08:25:37;;;;;;;9.67;4.13;;;;;;;23.46;34.55;94631.59;5029951;28;20456;-52
2022/04/24 08:28:08;;;;;;;7.03;4.20;;;;;;;23.62;34.06;94628.91;5030077;28;20455;-54
2022/04/24 08:30:38;;;;;;;7.27;3.83;;;;;;;23.76;33.59;94634.63;5030006;28;20224;-58
2022/04/24 08:33:05;;;;;;;9.60;3.90;;;;;;;24.01;34.07;94628.78;5030219;28;20448;-57
2022/04/24 08:35:32;;;;;;;6.10;3.20;;;;;;;24.25;32.93;94627.06;5030299;28;20444;-58
2022/04/24 08:37:59;;;;;;;7.53;3.80;;;;;;;24.38;33.21;94623.94;5030423;28;20440;-58
2022/04/24 08:40:26;;;;;;;8.83;4.30;;;;;;;24.04;32.71;94624.66;5029701;28;20207;-58
2022/04/24 08:42:55;;;;;;;7.23;3.23;;;;;;;24.32;32.09;94620.00;5030256;28;20197;-54
2022/04/24 08:45:27;;;;;;;7.30;4.03;;;;;;;24.45;32.57;94618.72;5029801;28;20217;-56
2022/04/24 08:47:55;;;;;;;8.53;3.53;;;;;;;24.47;32.02;94619.16;5029872;28;20460;-52
2022/04/24 08:50:23;;;;;;;11.17;3.27;;;;;;;24.04;31.83;94613.97;5029301;28;20973;-60
2022/04/24 08:52:50;;;;;;;11.90;3.60;;;;;;;24.22;31.53;94615.16;5029431;28;20182;-56
2022/04/24 08:55:18;;;;;;;13.07;3.67;;;;;;;24.48;33.36;94612.69;5029364;28;20762;-57
2022/04/24 08:57:44;;;;;;;9.50;3.47;;;;;;;24.47;32.88;94600.41;5028446;28;20233;-60
2022/04/24 09:00:12;;;;;;;8.57;3.40;;;;;;;24.69;32.34;94602.44;5029882;28;20201;-54
2022/04/24 09:02:50;;;;;;;6.00;2.87;;;;;;;24.72;31.09;94596.41;5029708;28;20697;-55
2022/04/24 09:05:18;;;;;;;11.60;3.03;;;;;;;24.91;31.50;94606.34;5029799;28;20193;-57
2022/04/24 09:07:45;;;;;;;8.87;3.27;;;;;;;25.08;30.98;94598.69;5029579;28;20220;-58
2022/04/24 09:10:45;;;;;;;6.37;3.40;;;;;;;25.41;31.04;94594.72;5029594;28;20186;-57
2022/04/24 09:13:12;;;;;;;4.83;2.87;;;;;;;25.32;30.26;94596.81;5029299;28;20291;-51
2022/04/24 09:15:39;;;;;;;8.20;3.77;;;;;;;25.49;31.49;94586.44;5027770;28;20637;-57
2022/04/24 09:18:06;;;;;;;7.20;2.87;;;;;;;25.96;31.76;94580.72;5029180;28;20303;-62
2022/04/24 09:20:41;;;;;;;9.80;2.87;;;;;;;26.09;31.16;94581.34;5029493;28;20219;-55
2022/04/24 09:23:09;;;;;;;4.93;2.93;;;;;;;25.81;31.88;94569.00;5029451;28;20195;-57
2022/04/24 09:25:39;;;;;;;7.30;3.00;;;;;;;26.30;32.21;94582.44;5029267;28;20193;-58
2022/04/24 09:28:06;;;;;;;5.03;2.53;;;;;;;26.27;31.45;94588.53;5029278;28;20209;-58
2022/04/24 09:30:36;;;;;;;14.80;3.67;;;;;;;26.37;31.42;94574.47;5029316;28;20201;-57
2022/04/24 09:33:07;;;;;;;7.53;2.93;;;;;;;26.12;30.90;94562.59;5029162;28;20220;-52
2022/04/24 09:35:40;;;;;;;7.03;2.57;;;;;;;26.00;30.23;94560.09;5029462;28;20212;-59
2022/04/24 09:38:08;;;;;;;7.47;2.57;;;;;;;26.16;30.48;94550.00;5029017;28;20209;-60
2022/04/24 09:40:42;;;;;;;7.10;3.27;;;;;;;26.47;30.45;94549.69;5028846;28;20259;-57
2022/04/24 09:43:18;;;;;;;7.70;3.17;;;;;;;26.87;30.54;94546.38;5028980;28;20274;-59
2022/04/24 09:45:55;;;;;;;5.10;2.60;;;;;;;27.08;29.94;94548.53;5029052;28;20197;-51
2022/04/24 09:48:23;;;;;;;6.47;2.87;;;;;;;27.44;29.81;94553.97;5028913;28;20192;-59
2022/04/24 09:50:51;;;;;;;6.07;2.30;;;;;;;27.77;29.45;94535.00;5028487;28;20205;-58
2022/04/24 09:53:19;;;;;;;6.77;2.70;;;;;;;28.16;28.75;94535.34;5028779;28;20236;-57
2022/04/24 09:55:51;;;;;;;8.97;2.43;;;;;;;28.10;27.91;94525.28;5028652;28;20254;-55
2022/04/24 09:58:20;;;;;;;5.73;2.30;;;;;;;28.26;28.03;94528.47;5029252;28;20197;-62
2022/04/24 10:00:50;;;;;;;5.70;2.33;;;;;;;28.52;27.81;94522.88;5028800;28;20247;-53
2022/04/24 10:03:19;;;;;;;7.43;2.87;;;;;;;28.62;27.98;94520.25;5029161;28;20684;-56
2022/04/24 10:05:48;;;;;;;7.00;2.53;;;;;;;28.78;27.43;94515.31;5028782;28;20174;-59
2022/04/24 10:08:16;;;;;;;9.20;2.13;;;;;;;29.12;26.59;94509.66;5029378;28;20221;-56
2022/04/24 10:10:50;;;;;;;7.53;2.50;;;;;;;29.16;26.42;94510.47;5028577;28;20247;-57
2022/04/24 10:13:20;;;;;;;8.07;2.60;;;;;;;29.35;26.00;94497.38;5029368;28;20197;-59
2022/04/24 10:16:04;;;;;;;4.60;2.30;;;;;;;29.46;26.14;94484.66;5028987;28;20231;-59
2022/04/24 10:18:38;;;;;;;6.03;2.47;;;;;;;28.90;25.15;94490.69;5032252;28;20228;-60
2022/04/24 10:21:30;;;;;;;7.67;2.30;;;;;;;29.30;25.75;94478.88;5032469;28;20185;-60
2022/04/24 10:24:10;;;;;;;6.60;2.30;;;;;;;29.60;26.17;94479.28;5033458;28;20228;-56
2022/04/24 10:26:38;;;;;;;4.53;2.33;;;;;;;29.89;25.93;94478.13;5032721;28;20270;-58
2022/04/24 10:29:08;;;;;;;6.93;2.10;;;;;;;29.90;24.97;94478.91;5032476;28;20299;-58
2022/04/24 10:31:43;;;;;;;7.57;2.30;;;;;;;30.23;24.84;94475.78;5032244;28;20296;-59
2022/04/24 10:34:11;;;;;;;9.70;2.20;;;;;;;29.87;24.89;94474.28;5032354;28;20266;-58
2022/04/24 10:36:55;;;;;;;4.60;2.20;;;;;;;30.07;24.81;94472.72;5032137;28;20197;-55
2022/04/24 10:39:26;;;;;;;9.00;2.60;;;;;;;30.93;24.41;94468.63;5032437;28;20193;-56
2022/04/24 10:42:07;;;;;;;7.90;2.07;;;;;;;31.16;24.09;94472.38;5032311;28;20761;-59
2022/04/24 10:44:34;;;;;;;5.80;2.20;;;;;;;30.99;24.04;94461.63;5032196;28;20230;-56
2022/04/24 10:47:11;;;;;;;6.30;2.10;;;;;;;31.32;23.35;94458.34;5032412;28;20235;-59
2022/04/24 10:49:38;;;;;;;7.70;1.90;;;;;;;31.00;24.05;94457.75;5031317;28;20221;-54
2022/04/24 10:52:06;;;;;;;4.40;1.80;;;;;;;31.02;23.61;94450.03;5032202;28;20278;-57
2022/04/24 10:54:36;;;;;;;7.50;2.47;;;;;;;31.06;23.67;94456.94;5031835;28;20212;-60
2022/04/24 10:57:23;;;;;;;4.90;1.70;;;;;;;30.66;23.34;94442.06;5031736;28;20193;-57
2022/04/24 10:59:52;;;;;;;5.53;1.97;;;;;;;30.79;23.71;94448.56;5031481;28;20769;-56
2022/04/24 11:02:26;;;;;;;5.20;2.23;;;;;;;30.18;23.39;94449.16;5032233;28;20201;-56
2022/04/24 11:05:12;;;;;;;6.17;2.30;;;;;;;31.29;23.71;94437.47;5031631;28;20201;-55
2022/04/24 11:07:39;;;;;;;4.77;1.60;;;;;;;31.30;23.51;94439.00;5031634;28;20212;-60
2022/04/24 11:10:11;;;;;;;7.73;2.30;;;;;;;31.74;23.93;94450.69;5031501;28;20267;-60
2022/04/24 11:12:40;;;;;;;5.47;2.17;;;;;;;30.84;22.26;94445.47;5032023;28;20735;-59
2022/04/24 11:15:08;;;;;;;5.27;2.10;;;;;;;31.53;22.56;94436.56;5031262;28;20280;-62
2022/04/24 11:17:36;;;;;;;6.70;2.20;;;;;;;31.71;22.23;94431.75;5031411;28;20221;-54
2022/04/24 11:20:15;;;;;;;6.10;2.30;;;;;;;31.86;23.32;94430.47;5031401;28;20196;-57
2022/04/24 11:22:47;;;;;;;6.30;2.00;;;;;;;32.05;22.45;94423.72;5031739;28;20283;-54
2022/04/24 11:25:16;;;;;;;6.13;2.00;;;;;;;31.45;21.65;94429.66;5031061;28;20185;-55
2022/04/24 11:27:44;;;;;;;4.13;2.00;;;;;;;31.43;22.15;94421.94;5031361;28;20189;-57
2022/04/24 11:30:15;;;;;;;5.97;2.20;;;;;;;32.03;21.77;94409.78;5029945;28;20603;-55
2022/04/24 11:32:57;;;;;;;14.17;2.73;;;;;;;31.55;21.71;94404.44;5032012;28;20280;-58